Neptune Ithaki — SVBS3 — position and weather

sailwx.info

Track history (hours):
 
Tides and Currents Weather Stations Pressure Air Temp Water Temp Dewpoint Dewpoint Depression Visibility Wind Speed Wind Dir Waves Ship Positions

Neptune Ithaki

Last reported at 2017-Nov-17 23:39 UTC. Time now 2017-Nov-21 04:47 UTC.
Position N 40°26' E 029°00'.

Length 169 m; draft 8.5 m.

Type: Cargo ship. MMSI: 241242000.

Date/timePositionNaut miles runAvg speedWind from/ knotsBaromVisibWave heightAir tempDewpointWater temp
2017-Nov-17 23:39N 40°26' E 029°00'212.5
2017-Nov-17 23:27N 40°25' E 029°03'1 0.1
2017-Nov-16 22:30N 40°25' E 029°05'1 1.5
2017-Nov-16 22:01N 40°26' E 029°04'25 8.5
2017-Nov-16 19:06N 40°50' E 028°57'115.6
2017-Nov-16 19:00N 40°51' E 028°57'712.6
2017-Nov-16 18:25N 40°59' E 028°59'188 5.3
2017-Nov-15 06:53N 44°06' E 028°40'0 0.0
2017-Nov-15 06:29N 44°06' E 028°40'0 0.0
2017-Nov-15 05:59N 44°06' E 028°40'0 0.0
2017-Nov-15 05:29N 44°06' E 028°40'0 0.0
2017-Nov-15 04:59N 44°06' E 028°40'0 0.0
2017-Nov-15 04:29N 44°06' E 028°40'0 0.0
2017-Nov-15 03:59N 44°06' E 028°40'0 0.0
2017-Nov-15 03:29N 44°06' E 028°40'0 0.0
2017-Nov-15 02:59N 44°06' E 028°40'0 0.0
2017-Nov-15 02:29N 44°06' E 028°40'0 0.0
2017-Nov-15 01:59N 44°06' E 028°40'0 0.0
2017-Nov-15 01:29N 44°06' E 028°40'0 0.0
2017-Nov-15 00:59N 44°06' E 028°40'0 0.0
2017-Nov-15 00:29N 44°06' E 028°40'0 0.0
2017-Nov-14 23:59N 44°06' E 028°40'0 0.0
2017-Nov-14 23:29N 44°06' E 028°40'0 0.0
2017-Nov-14 22:56N 44°06' E 028°40'0 0.0
2017-Nov-14 22:29N 44°06' E 028°40'0 0.0
2017-Nov-14 21:59N 44°06' E 028°40'0 0.0
2017-Nov-14 21:29N 44°06' E 028°40'0 0.0
2017-Nov-14 20:59N 44°06' E 028°40'0 0.0
2017-Nov-14 20:29N 44°06' E 028°40'0 0.0
2017-Nov-14 19:59N 44°06' E 028°40'0 0.0
2017-Nov-14 19:29N 44°06' E 028°40'0 0.0
2017-Nov-14 18:59N 44°06' E 028°40'0 0.0
2017-Nov-14 18:29N 44°06' E 028°40'0 0.0
2017-Nov-14 17:59N 44°06' E 028°40'0 0.0
2017-Nov-14 17:29N 44°06' E 028°40'0 0.0
2017-Nov-14 16:59N 44°06' E 028°40'0 0.0
2017-Nov-14 16:29N 44°06' E 028°40'0 0.0
2017-Nov-14 15:59N 44°06' E 028°40'0 0.0
2017-Nov-14 15:29N 44°06' E 028°40'0 0.0
2017-Nov-14 14:59N 44°06' E 028°40'0 0.0
2017-Nov-14 14:29N 44°06' E 028°40'0 0.0
2017-Nov-14 13:59N 44°06' E 028°40'0 0.0
2017-Nov-14 13:29N 44°06' E 028°40'0 0.0
2017-Nov-14 12:59N 44°06' E 028°40'0 0.0
2017-Nov-14 12:29N 44°06' E 028°40'0 0.0
2017-Nov-14 11:59N 44°06' E 028°40'0 0.0
2017-Nov-14 11:29N 44°06' E 028°40'0 0.0
2017-Nov-14 10:59N 44°06' E 028°40'0 0.0
2017-Nov-14 10:29N 44°06' E 028°40'0 0.0
2017-Nov-14 09:59N 44°06' E 028°40'0 0.0
2017-Nov-14 09:29N 44°06' E 028°40'0 0.0
2017-Nov-14 08:59N 44°06' E 028°40'0 0.0
2017-Nov-14 08:29N 44°06' E 028°40'0 0.0
2017-Nov-14 07:59N 44°06' E 028°40'0 0.0
2017-Nov-14 07:29N 44°06' E 028°40'0 0.0
2017-Nov-14 06:59N 44°06' E 028°40'0 0.0
2017-Nov-14 06:29N 44°06' E 028°40'0 0.0
2017-Nov-14 05:59N 44°06' E 028°40'0 0.0
2017-Nov-14 05:29N 44°06' E 028°40'0 0.1
2017-Nov-14 05:00N 44°06' E 028°39'1 1.0
2017-Nov-14 04:30N 44°06' E 028°40'2 4.2
2017-Nov-14 04:00N 44°06' E 028°43'4 7.3
2017-Nov-14 03:30N 44°03' E 028°46'4 8.0
2017-Nov-14 03:00N 43°60' E 028°49'4 7.8
2017-Nov-14 02:30N 43°56' E 028°50'4 8.6
2017-Nov-14 02:00N 43°52' E 028°51'510.1
2017-Nov-14 01:30N 43°47' E 028°52'510.1
2017-Nov-14 01:00N 43°42' E 028°52'510.2
2017-Nov-14 00:30N 43°36' E 028°53'510.2
2017-Nov-14 00:00N 43°31' E 028°54'510.2
2017-Nov-13 23:30N 43°26' E 028°54'510.2
2017-Nov-13 23:00N 43°21' E 028°55'510.2
2017-Nov-13 22:30N 43°16' E 028°56'510.2
2017-Nov-13 22:00N 43°11' E 028°57'  
2017-Nov-10 21:19N 37°37' E 024°08'1116.7
2017-Nov-10 20:41N 37°35' E 023°55'316.7
2017-Nov-10 20:30N 37°34' E 023°52'713.9
2017-Nov-10 20:00N 37°36' E 023°43'815.9
2017-Nov-10 19:31N 37°43' E 023°40'815.5
2017-Nov-10 19:01N 37°51' E 023°37'611.9
2017-Nov-10 18:28N 37°57' E 023°36'1 1.2
2017-Nov-10 17:55N 37°58' E 023°36'0 0.0
2017-Nov-10 17:28N 37°58' E 023°36'0 0.0
2017-Nov-10 16:58N 37°58' E 023°36'0 0.0
2017-Nov-10 16:28N 37°58' E 023°36'0 0.0
2017-Nov-10 15:58N 37°58' E 023°36'0 0.0
2017-Nov-10 15:28N 37°58' E 023°36'0 0.0
2017-Nov-10 14:58N 37°58' E 023°36'0 0.0
2017-Nov-10 14:25N 37°58' E 023°36'0 0.0
2017-Nov-10 13:58N 37°58' E 023°36'0 0.0
2017-Nov-10 13:28N 37°58' E 023°36'0 0.0
2017-Nov-10 12:55N 37°58' E 023°36'0 0.0
2017-Nov-10 12:28N 37°58' E 023°36'0 0.0
2017-Nov-10 11:55N 37°58' E 023°36'1 3.3
2017-Nov-10 11:30N 37°56' E 023°36'2 4.1
2017-Nov-10 11:00N 37°54' E 023°37'713.9
2017-Nov-10 10:30N 37°48' E 023°41'816.1
2017-Nov-10 10:01N 37°41' E 023°44'815.7
2017-Nov-10 09:30N 37°33' E 023°42'1115.9
2017-Nov-10 08:50N 37°23' E 023°38'1215.6
2017-Nov-10 08:02N 37°11' E 023°32'815.7
2017-Nov-10 07:33N 37°04' E 023°29'115.7
2017-Nov-10 07:31N 37°03' E 023°28'43014.5
2017-Nov-09 01:55N 36°39' E 014°33'716.1
2017-Nov-09 01:30N 36°41' E 014°24'815.8
2017-Nov-09 01:01N 36°43' E 014°15'815.7
2017-Nov-09 00:30N 36°45' E 014°05'816.2
2017-Nov-09 00:00N 36°46' E 013°56'816.4
2017-Nov-08 23:30N 36°48' E 013°45'816.5
2017-Nov-08 23:00N 36°49' E 013°35'  
Track history (hours):
 
Tides and Currents Weather Stations Pressure Air Temp Water Temp Dewpoint Dewpoint Depression Visibility Wind Speed Wind Dir Waves Ship Positions

Neptune Ithaki

Last reported at 2017-Nov-17 23:39 UTC. Time now 2017-Nov-21 04:47 UTC.
Position N 40°26' E 029°00'.

Length 169 m; draft 8.5 m.

Type: Cargo ship. MMSI: 241242000.

Date/timePositionNaut miles runAvg speedWind from/ knotsBaromVisibWave heightAir tempDewpointWater temp
2017-Nov-17 23:39N 40°26' E 029°00'212.5
2017-Nov-17 23:27N 40°25' E 029°03'1 0.1
2017-Nov-16 22:30N 40°25' E 029°05'1 1.5
2017-Nov-16 22:01N 40°26' E 029°04'25 8.5
2017-Nov-16 19:06N 40°50' E 028°57'115.6
2017-Nov-16 19:00N 40°51' E 028°57'712.6
2017-Nov-16 18:25N 40°59' E 028°59'188 5.3
2017-Nov-15 06:53N 44°06' E 028°40'0 0.0
2017-Nov-15 06:29N 44°06' E 028°40'0 0.0
2017-Nov-15 05:59N 44°06' E 028°40'0 0.0
2017-Nov-15 05:29N 44°06' E 028°40'0 0.0
2017-Nov-15 04:59N 44°06' E 028°40'0 0.0
2017-Nov-15 04:29N 44°06' E 028°40'0 0.0
2017-Nov-15 03:59N 44°06' E 028°40'0 0.0
2017-Nov-15 03:29N 44°06' E 028°40'0 0.0
2017-Nov-15 02:59N 44°06' E 028°40'0 0.0
2017-Nov-15 02:29N 44°06' E 028°40'0 0.0
2017-Nov-15 01:59N 44°06' E 028°40'0 0.0
2017-Nov-15 01:29N 44°06' E 028°40'0 0.0
2017-Nov-15 00:59N 44°06' E 028°40'0 0.0
2017-Nov-15 00:29N 44°06' E 028°40'0 0.0
2017-Nov-14 23:59N 44°06' E 028°40'0 0.0
2017-Nov-14 23:29N 44°06' E 028°40'0 0.0
2017-Nov-14 22:56N 44°06' E 028°40'0 0.0
2017-Nov-14 22:29N 44°06' E 028°40'0 0.0
2017-Nov-14 21:59N 44°06' E 028°40'0 0.0
2017-Nov-14 21:29N 44°06' E 028°40'0 0.0
2017-Nov-14 20:59N 44°06' E 028°40'0 0.0
2017-Nov-14 20:29N 44°06' E 028°40'0 0.0
2017-Nov-14 19:59N 44°06' E 028°40'0 0.0
2017-Nov-14 19:29N 44°06' E 028°40'0 0.0
2017-Nov-14 18:59N 44°06' E 028°40'0 0.0
2017-Nov-14 18:29N 44°06' E 028°40'0 0.0
2017-Nov-14 17:59N 44°06' E 028°40'0 0.0
2017-Nov-14 17:29N 44°06' E 028°40'0 0.0
2017-Nov-14 16:59N 44°06' E 028°40'0 0.0
2017-Nov-14 16:29N 44°06' E 028°40'0 0.0
2017-Nov-14 15:59N 44°06' E 028°40'0 0.0
2017-Nov-14 15:29N 44°06' E 028°40'0 0.0
2017-Nov-14 14:59N 44°06' E 028°40'0 0.0
2017-Nov-14 14:29N 44°06' E 028°40'0 0.0
2017-Nov-14 13:59N 44°06' E 028°40'0 0.0
2017-Nov-14 13:29N 44°06' E 028°40'0 0.0
2017-Nov-14 12:59N 44°06' E 028°40'0 0.0
2017-Nov-14 12:29N 44°06' E 028°40'0 0.0
2017-Nov-14 11:59N 44°06' E 028°40'0 0.0
2017-Nov-14 11:29N 44°06' E 028°40'0 0.0
2017-Nov-14 10:59N 44°06' E 028°40'0 0.0
2017-Nov-14 10:29N 44°06' E 028°40'0 0.0
2017-Nov-14 09:59N 44°06' E 028°40'0 0.0
2017-Nov-14 09:29N 44°06' E 028°40'0 0.0
2017-Nov-14 08:59N 44°06' E 028°40'0 0.0
2017-Nov-14 08:29N 44°06' E 028°40'0 0.0
2017-Nov-14 07:59N 44°06' E 028°40'0 0.0
2017-Nov-14 07:29N 44°06' E 028°40'0 0.0
2017-Nov-14 06:59N 44°06' E 028°40'0 0.0
2017-Nov-14 06:29N 44°06' E 028°40'0 0.0
2017-Nov-14 05:59N 44°06' E 028°40'0 0.0
2017-Nov-14 05:29N 44°06' E 028°40'0 0.1
2017-Nov-14 05:00N 44°06' E 028°39'1 1.0
2017-Nov-14 04:30N 44°06' E 028°40'2 4.2
2017-Nov-14 04:00N 44°06' E 028°43'4 7.3
2017-Nov-14 03:30N 44°03' E 028°46'4 8.0
2017-Nov-14 03:00N 43°60' E 028°49'4 7.8
2017-Nov-14 02:30N 43°56' E 028°50'4 8.6
2017-Nov-14 02:00N 43°52' E 028°51'510.1
2017-Nov-14 01:30N 43°47' E 028°52'510.1
2017-Nov-14 01:00N 43°42' E 028°52'510.2
2017-Nov-14 00:30N 43°36' E 028°53'510.2
2017-Nov-14 00:00N 43°31' E 028°54'510.2
2017-Nov-13 23:30N 43°26' E 028°54'510.2
2017-Nov-13 23:00N 43°21' E 028°55'510.2
2017-Nov-13 22:30N 43°16' E 028°56'510.2
2017-Nov-13 22:00N 43°11' E 028°57'  
2017-Nov-10 21:19N 37°37' E 024°08'1116.7
2017-Nov-10 20:41N 37°35' E 023°55'316.7
2017-Nov-10 20:30N 37°34' E 023°52'713.9
2017-Nov-10 20:00N 37°36' E 023°43'815.9
2017-Nov-10 19:31N 37°43' E 023°40'815.5
2017-Nov-10 19:01N 37°51' E 023°37'611.9
2017-Nov-10 18:28N 37°57' E 023°36'1 1.2
2017-Nov-10 17:55N 37°58' E 023°36'0 0.0
2017-Nov-10 17:28N 37°58' E 023°36'0 0.0
2017-Nov-10 16:58N 37°58' E 023°36'0 0.0
2017-Nov-10 16:28N 37°58' E 023°36'0 0.0
2017-Nov-10 15:58N 37°58' E 023°36'0 0.0
2017-Nov-10 15:28N 37°58' E 023°36'0 0.0
2017-Nov-10 14:58N 37°58' E 023°36'0 0.0
2017-Nov-10 14:25N 37°58' E 023°36'0 0.0
2017-Nov-10 13:58N 37°58' E 023°36'0 0.0
2017-Nov-10 13:28N 37°58' E 023°36'0 0.0
2017-Nov-10 12:55N 37°58' E 023°36'0 0.0
2017-Nov-10 12:28N 37°58' E 023°36'0 0.0
2017-Nov-10 11:55N 37°58' E 023°36'1 3.3
2017-Nov-10 11:30N 37°56' E 023°36'2 4.1
2017-Nov-10 11:00N 37°54' E 023°37'713.9
2017-Nov-10 10:30N 37°48' E 023°41'816.1
2017-Nov-10 10:01N 37°41' E 023°44'815.7
2017-Nov-10 09:30N 37°33' E 023°42'1115.9
2017-Nov-10 08:50N 37°23' E 023°38'1215.6
2017-Nov-10 08:02N 37°11' E 023°32'815.7
2017-Nov-10 07:33N 37°04' E 023°29'115.7
2017-Nov-10 07:31N 37°03' E 023°28'43014.5
2017-Nov-09 01:55N 36°39' E 014°33'716.1
2017-Nov-09 01:30N 36°41' E 014°24'815.8
2017-Nov-09 01:01N 36°43' E 014°15'815.7
2017-Nov-09 00:30N 36°45' E 014°05'816.2
2017-Nov-09 00:00N 36°46' E 013°56'816.4
2017-Nov-08 23:30N 36°48' E 013°45'816.5
2017-Nov-08 23:00N 36°49' E 013°35'  

Dump ship's entire track history